Time;durP1;ratioP1;P1;durP2;ratioP2;P2;SDS_P1;SDS_P2;PMS_P1;PMS_P2;Temp;Humidity;BMP_temperature;BMP_pressure;BME280_temperature;BME280_humidity;BME280_pressure;Samples;Min_cycle;Max_cycle;Signal;HPM_P1;HPM_P2
2022/08/02 00:02:23;;;;;;;6.38;2.80;;;;;;;21.55;66.59;101770.34;7393282;19;20525;-54
2022/08/02 00:04:55;;;;;;;7.25;2.97;;;;;;;21.56;66.61;101772.06;7392627;19;20025;-56
2022/08/02 00:07:24;;;;;;;4.32;2.38;;;;;;;21.56;66.67;101775.59;7391989;19;20022;-56
2022/08/02 00:09:53;;;;;;;7.80;2.30;;;;;;;21.54;66.63;101766.84;7392296;19;20824;-54
2022/08/02 00:12:22;;;;;;;3.53;2.00;;;;;;;21.55;67.71;101763.22;7392396;19;20022;-55
2022/08/02 00:14:51;;;;;;;5.35;2.17;;;;;;;21.53;67.84;101761.63;7392972;19;20018;-57
2022/08/02 00:17:20;;;;;;;5.75;2.10;;;;;;;21.52;68.82;101763.47;7390734;19;20463;-56
2022/08/02 00:19:49;;;;;;;6.35;2.67;;;;;;;21.49;69.56;101761.00;7391807;19;20459;-56
2022/08/02 00:22:20;;;;;;;5.22;1.95;;;;;;;21.41;70.05;101766.88;7392471;19;20018;-54
2022/08/02 00:24:49;;;;;;;8.00;2.50;;;;;;;21.41;69.93;101766.06;7392762;19;20019;-56
2022/08/02 00:27:18;;;;;;;8.35;2.72;;;;;;;21.44;69.67;101773.81;7392712;19;20022;-57
2022/08/02 00:29:49;;;;;;;4.55;2.00;;;;;;;21.47;69.82;101772.75;7392747;19;20017;-51
2022/08/02 00:32:18;;;;;;;4.93;2.10;;;;;;;21.52;69.56;101770.59;7394543;19;20019;-58
2022/08/02 00:34:47;;;;;;;7.38;2.55;;;;;;;21.51;69.47;101780.41;7394446;19;20644;-50
2022/08/02 00:37:16;;;;;;;7.25;2.53;;;;;;;21.48;68.45;101779.75;7392562;19;20006;-55
2022/08/02 00:39:47;;;;;;;6.68;2.33;;;;;;;21.43;68.95;101775.66;7392633;19;20014;-52
2022/08/02 00:42:17;;;;;;;6.97;2.75;;;;;;;21.40;69.72;101773.19;7392832;19;20471;-56
2022/08/02 00:44:46;;;;;;;7.93;2.22;;;;;;;21.38;69.88;101766.28;7396917;19;20076;-53
2022/08/02 00:47:14;;;;;;;6.88;2.30;;;;;;;21.38;69.54;101764.47;7391726;19;20360;-55
2022/08/02 00:49:43;;;;;;;8.95;2.17;;;;;;;21.33;69.30;101763.09;7392999;19;20014;-52
2022/08/02 00:52:12;;;;;;;7.20;2.72;;;;;;;21.27;69.84;101756.41;7392998;19;20047;-52
2022/08/02 00:54:41;;;;;;;3.60;2.22;;;;;;;21.25;70.79;101753.03;7392909;19;20014;-52
2022/08/02 00:57:12;;;;;;;4.40;2.30;;;;;;;21.23;70.24;101765.59;7391638;19;20420;-51
2022/08/02 00:59:41;;;;;;;6.85;2.30;;;;;;;21.19;69.89;101753.47;7391839;19;20026;-50
2022/08/02 01:02:11;;;;;;;5.90;2.30;;;;;;;21.13;71.54;101759.25;7395451;19;20499;-53
2022/08/02 01:04:40;;;;;;;6.63;2.22;;;;;;;21.14;71.62;101756.47;7391205;19;20475;-54
2022/08/02 01:07:09;;;;;;;5.47;2.70;;;;;;;21.11;71.79;101759.38;7389693;19;20094;-53
2022/08/02 01:09:37;;;;;;;5.68;2.30;;;;;;;21.11;72.51;101762.03;7389539;19;20034;-55
2022/08/02 01:12:07;;;;;;;5.00;2.03;;;;;;;21.08;72.50;101762.28;7394323;19;20007;-56
2022/08/02 01:14:39;;;;;;;7.47;2.42;;;;;;;21.08;73.85;101754.28;7390846;19;20377;-53
2022/08/02 01:17:11;;;;;;;5.72;2.58;;;;;;;21.11;72.76;101761.19;7389789;19;20011;-52
2022/08/02 01:19:50;;;;;;;6.43;2.30;;;;;;;20.98;71.70;101756.78;7390220;19;20364;-57
2022/08/02 01:22:39;;;;;;;3.55;2.55;;;;;;;20.95;72.70;101757.00;7390051;19;20566;-57
2022/08/02 01:25:22;;;;;;;4.93;2.50;;;;;;;20.98;73.47;101754.09;7391559;19;20109;-54
2022/08/02 01:28:08;;;;;;;6.47;2.30;;;;;;;20.98;74.16;101754.09;7389282;19;20025;-56
2022/08/02 01:30:40;;;;;;;6.30;2.33;;;;;;;20.96;73.46;101753.38;7389284;19;20034;-55
2022/08/02 01:33:11;;;;;;;7.53;3.00;;;;;;;20.91;74.80;101747.53;7390742;19;20018;-55
2022/08/02 01:35:45;;;;;;;9.40;2.55;;;;;;;20.89;75.47;101747.63;7390270;19;20111;-56
2022/08/02 01:38:23;;;;;;;9.68;2.75;;;;;;;20.85;74.77;101745.31;7387763;19;20022;-54
2022/08/02 01:40:55;;;;;;;4.25;2.20;;;;;;;20.84;75.47;101735.63;7389276;19;20014;-55
2022/08/02 01:43:29;;;;;;;4.55;2.50;;;;;;;20.79;76.43;101735.09;7389912;19;20094;-57
2022/08/02 01:46:00;;;;;;;7.68;2.60;;;;;;;20.74;76.65;101728.28;7390467;19;20019;-54
2022/08/02 01:48:31;;;;;;;5.72;2.33;;;;;;;20.74;76.87;101724.78;7387608;19;20015;-55
2022/08/02 01:51:02;;;;;;;4.45;2.30;;;;;;;20.68;76.94;101726.09;7393196;19;20443;-55
2022/08/02 01:53:33;;;;;;;5.40;2.50;;;;;;;20.61;78.79;101729.28;7387656;19;20022;-55
2022/08/02 01:56:04;;;;;;;6.95;2.70;;;;;;;20.58;79.50;101722.34;7389115;19;20018;-55
2022/08/02 01:58:38;;;;;;;5.70;2.55;;;;;;;20.61;80.01;101726.63;7388793;19;20145;-58
2022/08/02 02:01:09;;;;;;;4.55;2.13;;;;;;;20.59;79.74;101726.72;7389244;19;20021;-57
2022/08/02 02:03:41;;;;;;;4.68;2.25;;;;;;;20.53;81.70;101728.03;7388895;19;20021;-57
2022/08/02 02:06:13;;;;;;;8.52;2.50;;;;;;;20.59;80.70;101716.06;7389646;19;20011;-56
2022/08/02 02:08:45;;;;;;;4.45;2.67;;;;;;;20.57;80.41;101713.53;7386696;19;20018;-57
2022/08/02 02:11:14;;;;;;;9.43;2.83;;;;;;;20.53;81.25;101722.69;7391718;19;20022;-56
2022/08/02 02:13:46;;;;;;;7.05;2.85;;;;;;;20.51;81.43;101715.78;7388902;19;20759;-56
2022/08/02 02:16:16;;;;;;;6.78;2.70;;;;;;;20.49;81.54;101713.22;7391988;19;20021;-57
2022/08/02 02:18:48;;;;;;;6.07;2.60;;;;;;;20.49;81.60;101709.69;7387812;19;20360;-57
2022/08/02 02:21:17;;;;;;;7.32;3.28;;;;;;;20.48;80.91;101711.50;7388174;19;20494;-57
2022/08/02 02:23:46;;;;;;;6.28;3.13;;;;;;;20.46;80.69;101710.78;7388356;19;20015;-52
2022/08/02 02:26:18;;;;;;;8.88;2.80;;;;;;;20.44;80.63;101706.53;7388851;19;20018;-53
2022/08/02 02:28:51;;;;;;;4.57;2.90;;;;;;;20.43;80.44;101705.69;7388145;19;20030;-58
2022/08/02 02:31:22;;;;;;;5.40;2.97;;;;;;;20.40;80.36;101703.22;7389484;19;20773;-56
2022/08/02 02:33:58;;;;;;;5.43;3.08;;;;;;;20.38;80.51;101700.69;7388060;19;20022;-57
2022/08/02 02:36:28;;;;;;;7.22;2.88;;;;;;;20.39;80.59;101698.88;7388018;19;20355;-58
2022/08/02 02:39:01;;;;;;;6.60;3.10;;;;;;;20.46;80.67;101692.16;7387195;19;20078;-53
2022/08/02 02:41:30;;;;;;;8.38;3.05;;;;;;;20.45;79.95;101693.09;7387943;19;20025;-56
2022/08/02 02:44:04;;;;;;;5.72;2.97;;;;;;;20.44;79.85;101696.72;7365155;19;20499;-59
2022/08/02 02:46:34;;;;;;;8.05;3.25;;;;;;;20.37;79.89;101698.13;7387982;19;20018;-52
2022/08/02 02:49:04;;;;;;;8.48;3.20;;;;;;;20.39;79.02;101696.22;7389443;19;20491;-53
2022/08/02 02:51:33;;;;;;;10.05;3.70;;;;;;;20.40;78.83;101684.59;7387619;19;20078;-52
2022/08/02 02:54:04;;;;;;;9.27;3.42;;;;;;;20.42;78.40;101673.81;7387567;19;20029;-54
2022/08/02 02:56:33;;;;;;;7.75;3.22;;;;;;;20.39;77.99;101672.25;7387549;19;20023;-57
2022/08/02 02:59:05;;;;;;;8.00;4.15;;;;;;;20.40;78.67;101666.81;7387325;19;20472;-51
2022/08/02 03:01:33;;;;;;;15.17;6.47;;;;;;;20.43;78.82;101667.53;7389376;19;20014;-54
2022/08/02 03:04:05;;;;;;;10.48;3.75;;;;;;;20.45;79.69;101663.81;7386741;19;20387;-58
2022/08/02 03:06:34;;;;;;;9.02;4.50;;;;;;;20.48;78.77;101671.56;7392153;19;20048;-54
2022/08/02 03:09:03;;;;;;;9.73;4.25;;;;;;;20.53;78.02;101663.25;7393766;19;20034;-53
2022/08/02 03:11:33;;;;;;;7.68;3.63;;;;;;;20.54;79.01;101676.44;7394125;19;20019;-56
2022/08/02 03:14:06;;;;;;;6.68;3.35;;;;;;;20.51;79.68;101673.19;7393763;19;20007;-57
2022/08/02 03:16:35;;;;;;;11.10;3.90;;;;;;;20.51;78.14;101671.34;7397066;19;20014;-59
2022/08/02 03:19:05;;;;;;;7.25;3.30;;;;;;;20.47;78.29;101677.84;7392619;19;20033;-58
2022/08/02 03:21:33;;;;;;;9.55;3.83;;;;;;;20.47;77.98;101680.53;7395545;19;20479;-59
2022/08/02 03:24:02;;;;;;;9.18;3.58;;;;;;;20.40;77.51;101682.78;7394483;19;20019;-59
2022/08/02 03:26:31;;;;;;;6.93;3.42;;;;;;;20.32;78.09;101684.31;7393623;19;20522;-57
2022/08/02 03:29:00;;;;;;;7.97;3.60;;;;;;;20.29;78.38;101687.16;7393736;19;20011;-58
2022/08/02 03:31:31;;;;;;;9.05;3.40;;;;;;;20.31;80.16;101682.59;7396929;19;20015;-57
2022/08/02 03:34:02;;;;;;;8.98;3.47;;;;;;;20.32;80.17;101686.97;7399084;19;20348;-58
2022/08/02 03:36:34;;;;;;;7.88;3.60;;;;;;;20.35;80.10;101690.25;7393311;19;20010;-56
2022/08/02 03:39:04;;;;;;;7.60;3.70;;;;;;;20.39;80.31;101678.44;7390385;19;20041;-56
2022/08/02 03:41:37;;;;;;;6.72;3.67;;;;;;;20.36;80.37;101673.31;7393921;19;20025;-55
2022/08/02 03:44:08;;;;;;;7.70;3.97;;;;;;;20.28;80.12;101662.38;7393926;19;20018;-58
2022/08/02 03:46:40;;;;;;;8.10;3.80;;;;;;;20.27;79.90;101667.81;7393406;19;20026;-56
2022/08/02 03:49:11;;;;;;;10.07;3.72;;;;;;;20.33;80.41;101664.69;7395531;19;20015;-56
2022/08/02 03:51:40;;;;;;;7.82;3.58;;;;;;;20.36;80.70;101656.47;7393634;19;20015;-57
2022/08/02 03:54:10;;;;;;;5.93;3.60;;;;;;;20.39;79.85;101662.44;7397101;19;20448;-57
2022/08/02 03:56:39;;;;;;;9.55;3.92;;;;;;;20.35;79.71;101654.81;7393122;19;20015;-58
2022/08/02 03:59:12;;;;;;;6.88;3.65;;;;;;;20.37;80.16;101664.38;7389849;19;20018;-57
2022/08/02 04:01:45;;;;;;;15.43;4.05;;;;;;;20.37;79.27;101659.06;7393792;19;20022;-54
2022/08/02 04:04:13;;;;;;;7.30;4.00;;;;;;;20.40;79.63;101666.81;7394148;19;20014;-58
2022/08/02 04:06:42;;;;;;;7.03;3.75;;;;;;;20.42;79.60;101661.38;7392718;19;20027;-57
2022/08/02 04:09:11;;;;;;;6.80;3.72;;;;;;;20.45;80.05;101662.97;7392814;19;20038;-58
2022/08/02 04:11:37;;;;;;;10.63;4.03;;;;;;;20.46;80.33;101662.88;7392912;19;20021;-57
2022/08/02 04:14:09;;;;;;;8.98;4.55;;;;;;;20.40;79.87;101645.53;7393205;19;20431;-53
2022/08/02 04:16:45;;;;;;;7.47;3.80;;;;;;;20.45;79.54;101653.16;7391297;19;20015;-58
2022/08/02 04:19:18;;;;;;;10.48;4.10;;;;;;;20.49;79.93;101656.44;7389994;19;20363;-58
2022/08/02 04:21:50;;;;;;;10.32;4.47;;;;;;;20.53;79.82;101652.59;7395857;19;20007;-59
2022/08/02 04:24:23;;;;;;;9.20;4.17;;;;;;;20.55;79.63;101648.88;7396252;19;20014;-59
2022/08/02 04:26:52;;;;;;;;;;;;;;;20.60;79.88;101656.50;7396295;19;20017;-59
2022/08/02 04:29:21;;;;;;;6.97;4.35;;;;;;;20.58;79.75;101653.13;7391729;19;19928;-59
2022/08/02 04:31:53;;;;;;;7.30;3.80;;;;;;;20.58;80.04;101650.47;7392867;19;20021;-59
2022/08/02 04:34:22;;;;;;;8.10;4.25;;;;;;;20.58;79.79;101658.44;7392772;19;20015;-58
2022/08/02 04:36:52;;;;;;;11.82;4.50;;;;;;;20.58;79.84;101658.44;7393098;19;20324;-58
2022/08/02 04:39:21;;;;;;;10.65;4.88;;;;;;;20.58;80.07;101666.44;7390616;19;20025;-58
2022/08/02 04:41:50;;;;;;;8.35;4.45;;;;;;;20.54;80.09;101665.78;7397197;19;20025;-57
2022/08/02 04:44:18;;;;;;;9.60;4.28;;;;;;;20.56;81.03;101668.34;7392471;19;20473;-57
2022/08/02 04:46:48;;;;;;;8.75;4.57;;;;;;;20.57;81.79;101670.06;7392044;19;20029;-58
2022/08/02 04:49:19;;;;;;;9.20;4.68;;;;;;;20.60;81.57;101669.81;7392183;19;20021;-58
2022/08/02 04:51:48;;;;;;;8.00;4.90;;;;;;;20.58;81.58;101659.28;7392351;19;20011;-58
2022/08/02 04:54:17;;;;;;;9.43;4.80;;;;;;;20.56;81.42;101657.69;7391849;19;20018;-58
2022/08/02 04:56:46;;;;;;;11.00;4.82;;;;;;;20.57;81.57;101651.41;7391019;19;20014;-58
2022/08/02 04:59:15;;;;;;;8.98;4.95;;;;;;;20.60;82.65;101653.84;7389553;19;20511;-59
2022/08/02 05:01:44;;;;;;;10.93;5.30;;;;;;;20.63;81.77;101652.78;7392755;19;20018;-58
2022/08/02 05:04:13;;;;;;;10.00;5.53;;;;;;;20.65;81.70;101654.38;7416871;19;20010;-59
2022/08/02 05:06:44;;;;;;;10.57;5.70;;;;;;;20.68;82.27;101650.66;7391857;19;20061;-58
2022/08/02 05:09:13;;;;;;;10.40;5.93;;;;;;;20.68;83.05;101662.16;7389962;19;20018;-59
2022/08/02 05:11:42;;;;;;;9.98;5.82;;;;;;;;;;7391638;19;20519;-57
2022/08/02 05:14:10;;;;;;;11.48;5.80;;;;;;;20.72;82.85;101658.31;7391064;19;20023;-59
2022/08/02 05:16:39;;;;;;;12.50;6.05;;;;;;;;;;7391234;19;20017;-58
2022/08/02 05:19:08;;;;;;;7.38;5.70;;;;;;;20.74;81.95;101647.53;7389283;19;20019;-58
2022/08/02 05:21:37;;;;;;;10.57;6.35;;;;;;;20.69;82.45;101647.88;7395497;19;20011;-59
2022/08/02 05:24:09;;;;;;;9.85;6.05;;;;;;;20.69;83.44;101649.69;7391768;19;20019;-55
2022/08/02 05:26:38;;;;;;;13.23;6.40;;;;;;;20.76;82.96;101652.75;7391585;19;20015;-59
2022/08/02 05:29:07;;;;;;;8.65;5.45;;;;;;;20.82;83.65;101646.97;7389531;19;20018;-52
2022/08/02 05:31:36;;;;;;;10.82;5.85;;;;;;;20.84;83.75;101639.72;7392486;19;20340;-56
2022/08/02 05:34:05;;;;;;;16.33;6.25;;;;;;;20.89;84.91;101645.53;7391139;19;20021;-56
2022/08/02 05:36:34;;;;;;;11.10;5.88;;;;;;;20.97;84.42;101651.16;7392101;19;20760;-56
2022/08/02 05:39:03;;;;;;;9.30;5.10;;;;;;;20.96;84.16;101646.81;7387734;19;20025;-57
2022/08/02 05:41:34;;;;;;;13.75;6.85;;;;;;;21.04;84.09;101641.72;7390447;19;20019;-55
2022/08/02 05:44:03;;;;;;;10.27;5.75;;;;;;;21.05;83.44;101645.25;7391034;19;20345;-52
2022/08/02 05:46:32;;;;;;;9.05;6.00;;;;;;;21.04;83.43;101632.88;7390161;19;20022;-54
2022/08/02 05:49:02;;;;;;;11.25;6.30;;;;;;;21.12;83.18;101635.81;7390025;19;20014;-57
2022/08/02 05:51:39;;;;;;;11.43;6.32;;;;;;;21.16;84.03;101642.63;7390686;19;20022;-58
2022/08/02 05:54:17;;;;;;;10.60;5.90;;;;;;;21.14;82.72;101638.38;7394705;19;20010;-59
2022/08/02 05:56:56;;;;;;;11.38;6.53;;;;;;;21.26;83.10;101634.75;7389874;19;20366;-59
2022/08/02 05:59:33;;;;;;;13.73;6.70;;;;;;;21.33;82.57;101643.97;7387709;19;20349;-57
2022/08/02 06:02:05;;;;;;;11.40;6.32;;;;;;;21.36;81.15;101640.22;7390224;19;20019;-59
2022/08/02 06:04:45;;;;;;;9.00;5.93;;;;;;;21.44;81.28;101635.16;7390207;19;20019;-58
2022/08/02 06:07:16;;;;;;;12.15;5.90;;;;;;;21.52;81.79;101639.91;7390091;19;20026;-57
2022/08/02 06:09:47;;;;;;;15.07;6.05;;;;;;;21.52;81.23;101637.25;7392447;19;20021;-58
2022/08/02 06:12:19;;;;;;;17.58;5.88;;;;;;;21.56;81.26;101655.59;7390676;19;20025;-59
2022/08/02 06:14:49;;;;;;;10.45;5.53;;;;;;;21.46;80.82;101646.53;7390365;19;20024;-58
2022/08/02 06:17:18;;;;;;;13.48;6.25;;;;;;;21.66;81.06;101645.03;7388448;19;20048;-59
2022/08/02 06:19:48;;;;;;;17.20;6.53;;;;;;;21.71;80.08;101645.53;7387446;19;20007;-58
2022/08/02 06:22:18;;;;;;;10.95;6.15;;;;;;;21.75;78.58;101649.66;7389311;19;20025;-59
2022/08/02 06:24:48;;;;;;;16.08;6.43;;;;;;;21.83;78.64;101650.88;7389786;19;20021;-60
2022/08/02 06:27:20;;;;;;;12.27;6.13;;;;;;;21.80;79.00;101643.94;7393083;19;20019;-59
2022/08/02 06:29:50;;;;;;;12.77;6.95;;;;;;;21.74;79.72;101634.59;7389407;19;20025;-58
2022/08/02 06:32:20;;;;;;;12.13;6.00;;;;;;;21.87;79.65;101641.66;7389219;19;20018;-58
2022/08/02 06:34:49;;;;;;;13.77;6.03;;;;;;;21.96;79.83;101635.56;7389951;19;20048;-59
2022/08/02 06:37:28;;;;;;;9.52;6.70;;;;;;;21.89;82.17;101632.56;7388561;19;20355;-57
2022/08/02 06:40:05;;;;;;;11.52;6.22;;;;;;;22.05;80.83;101640.19;7387520;19;20029;-59
2022/08/02 06:42:45;;;;;;;11.68;5.95;;;;;;;22.13;82.24;101644.91;7398708;19;20014;-59
2022/08/02 06:45:14;;;;;;;12.82;6.03;;;;;;;22.00;84.30;101638.84;7397175;19;20023;-57
2022/08/02 06:47:43;;;;;;;12.93;6.43;;;;;;;22.18;83.91;101628.50;7395028;19;20018;-59
2022/08/02 06:50:13;;;;;;;13.05;6.18;;;;;;;22.19;83.07;101620.38;7396629;19;20122;-57
2022/08/02 06:52:42;;;;;;;11.88;5.97;;;;;;;22.17;83.85;101616.97;7397137;19;20026;-59
2022/08/02 06:55:11;;;;;;;11.27;6.25;;;;;;;22.34;83.62;101623.66;7397284;19;20464;-58
2022/08/02 06:57:43;;;;;;;11.80;6.82;;;;;;;22.42;83.41;101621.22;7395865;19;20690;-59
2022/08/02 07:00:13;;;;;;;9.60;5.38;;;;;;;22.50;83.47;101614.41;7399641;19;20364;-59
2022/08/02 07:02:42;;;;;;;12.98;6.68;;;;;;;22.61;84.30;101617.88;7399435;19;20018;-57
2022/08/02 07:05:12;;;;;;;13.52;5.82;;;;;;;22.74;83.14;101617.69;7418569;19;20006;-60
2022/08/02 07:07:41;;;;;;;10.27;6.10;;;;;;;22.79;82.80;101610.13;7399793;19;20010;-61
2022/08/02 07:10:10;;;;;;;11.50;5.65;;;;;;;22.71;85.05;101617.09;7396392;19;20014;-58
2022/08/02 07:12:39;;;;;;;12.48;6.40;;;;;;;22.90;84.10;101614.56;7396846;19;20019;-59
2022/08/02 07:15:15;;;;;;;11.52;6.57;;;;;;;22.94;83.44;101617.84;7398470;19;20026;-58
2022/08/02 07:17:44;;;;;;;11.77;6.32;;;;;;;22.85;84.66;101608.75;7395984;19;20379;-58
2022/08/02 07:20:13;;;;;;;11.68;6.20;;;;;;;22.95;84.73;101606.16;7394804;19;20010;-58
2022/08/02 07:22:43;;;;;;;9.80;6.25;;;;;;;23.11;84.79;101603.06;7397265;19;20525;-58
2022/08/02 07:25:12;;;;;;;8.90;5.47;;;;;;;23.24;85.78;101603.72;7397386;19;20019;-58
2022/08/02 07:27:41;;;;;;;9.40;6.40;;;;;;;23.32;84.57;101585.16;7395915;19;20018;-57
2022/08/02 07:30:13;;;;;;;12.00;6.38;;;;;;;23.39;84.97;101598.88;7396899;19;20534;-57
2022/08/02 07:32:42;;;;;;;12.43;6.22;;;;;;;23.52;84.85;101601.31;7399491;19;20519;-55
2022/08/02 07:35:11;;;;;;;12.57;6.80;;;;;;;23.59;83.71;101593.63;7395493;19;20015;-59
2022/08/02 07:37:41;;;;;;;12.48;6.07;;;;;;;23.77;83.50;101594.69;7394189;19;20030;-59
2022/08/02 07:40:12;;;;;;;11.23;5.63;;;;;;;23.87;83.43;101600.09;7392208;19;20114;-57
2022/08/02 07:42:41;;;;;;;10.48;6.07;;;;;;;23.83;82.94;101602.16;7398493;19;20049;-59
2022/08/02 07:45:15;;;;;;;9.48;5.78;;;;;;;23.91;84.83;101595.31;7394742;19;20032;-60
2022/08/02 07:47:45;;;;;;;8.05;5.40;;;;;;;23.89;85.39;101586.59;7395961;19;20029;-60
2022/08/02 07:50:15;;;;;;;11.13;5.82;;;;;;;23.81;86.64;101574.69;7394835;19;20070;-60
2022/08/02 07:52:46;;;;;;;8.25;6.18;;;;;;;24.12;85.79;101571.13;7396965;19;20014;-60
2022/08/02 07:55:16;;;;;;;10.32;6.28;;;;;;;24.22;84.37;101571.97;7395028;19;20030;-60
2022/08/02 07:57:46;;;;;;;11.32;5.43;;;;;;;24.48;83.88;101572.28;7393055;19;20026;-58
2022/08/02 08:00:19;;;;;;;10.18;6.22;;;;;;;24.36;83.84;101568.91;7395167;19;20022;-59
2022/08/02 08:02:48;;;;;;;9.45;6.18;;;;;;;24.41;84.73;101576.50;7395042;19;20022;-57
2022/08/02 08:05:17;;;;;;;9.30;6.75;;;;;;;24.45;84.45;101572.56;7397187;19;20462;-59
2022/08/02 08:07:46;;;;;;;11.93;7.70;;;;;;;24.15;84.59;101568.16;7392258;19;20018;-56
2022/08/02 08:10:15;;;;;;;18.20;7.93;;;;;;;24.58;84.40;101568.75;7393503;19;20010;-56
2022/08/02 08:12:43;;;;;;;11.57;8.02;;;;;;;24.79;82.58;101563.28;7394166;19;20018;-55
2022/08/02 08:15:13;;;;;;;10.25;7.65;;;;;;;24.59;82.58;101562.44;7394239;19;20026;-58
2022/08/02 08:17:44;;;;;;;11.32;7.93;;;;;;;24.91;82.50;101562.13;7392574;19;20025;-56
2022/08/02 08:20:14;;;;;;;11.43;8.13;;;;;;;25.10;80.30;101569.25;7391515;19;20113;-59
2022/08/02 08:22:42;;;;;;;13.15;8.40;;;;;;;25.03;79.33;101568.16;7398046;19;20018;-58
2022/08/02 08:25:12;;;;;;;10.27;8.50;;;;;;;25.08;79.00;101565.06;7393290;19;20027;-59
2022/08/02 08:27:50;;;;;;;10.15;7.47;;;;;;;25.20;78.83;101567.44;7392388;19;20025;-59
2022/08/02 08:32:56;;;;;;;11.18;9.43;;;;;;;25.32;74.14;101572.66;7400023;19;20018;-63
2022/08/02 08:35:25;;;;;;;12.02;8.75;;;;;;;25.28;74.51;101565.84;7398627;19;20014;-64
2022/08/02 08:37:54;;;;;;;11.32;9.93;;;;;;;25.04;75.79;101564.50;7396902;19;20014;-62
2022/08/02 08:40:23;;;;;;;12.55;8.85;;;;;;;25.00;76.87;101558.59;7393937;19;20019;-63
2022/08/02 08:42:52;;;;;;;13.30;8.98;;;;;;;25.25;75.78;101555.41;7398116;19;20033;-66
2022/08/02 08:45:21;;;;;;;11.70;8.48;;;;;;;25.70;74.15;101560.91;7397940;19;20371;-64
2022/08/02 08:47:54;;;;;;;14.55;8.52;;;;;;;25.85;73.60;101558.53;7395812;19;20019;-63
2022/08/02 08:50:27;;;;;;;10.30;9.20;;;;;;;25.27;73.27;101554.25;7395646;19;20015;-64
2022/08/02 08:52:59;;;;;;;15.65;10.15;;;;;;;25.36;74.67;101553.41;7396505;19;20333;-65
2022/08/02 08:55:30;;;;;;;12.80;9.82;;;;;;;25.41;73.02;101555.66;7396434;19;20014;-63
2022/08/02 08:58:01;;;;;;;12.70;9.15;;;;;;;25.55;74.51;101557.00;7398679;19;20018;-65
2022/08/02 09:00:32;;;;;;;11.02;8.15;;;;;;;25.96;70.81;101559.31;7392140;19;20025;-63
2022/08/02 09:03:07;;;;;;;12.05;8.32;;;;;;;26.10;71.59;101561.53;7395150;19;20511;-65
2022/08/02 09:05:40;;;;;;;9.45;7.15;;;;;;;25.87;71.16;101563.75;7396305;19;20106;-64
2022/08/02 09:08:09;;;;;;;8.52;7.03;;;;;;;25.95;70.04;101568.38;7396156;19;20018;-65
2022/08/02 09:10:43;;;;;;;11.98;7.68;;;;;;;25.97;68.42;101563.72;7394872;19;20031;-64
2022/08/02 09:13:19;;;;;;;8.70;6.00;;;;;;;25.97;70.74;101561.03;7395163;19;20014;-64
2022/08/02 09:15:57;;;;;;;7.57;6.00;;;;;;;26.11;67.12;101562.38;7394242;19;20019;-64
2022/08/02 09:18:33;;;;;;;7.85;5.50;;;;;;;26.24;67.24;101563.69;7394810;19;20455;-63
2022/08/02 09:21:07;;;;;;;7.72;5.82;;;;;;;25.93;64.98;101549.72;7393444;19;20452;-62
2022/08/02 09:23:37;;;;;;;7.88;5.47;;;;;;;26.08;64.39;101552.78;7395480;19;20066;-62
2022/08/02 09:26:08;;;;;;;8.15;4.72;;;;;;;26.31;63.39;101560.41;7394389;19;20014;-65
2022/08/02 09:28:39;;;;;;;7.60;4.10;;;;;;;26.09;59.06;101565.19;7396676;19;20102;-64
2022/08/02 09:31:09;;;;;;;6.70;4.05;;;;;;;26.19;57.98;101563.31;7393508;19;20078;-64
2022/08/02 09:33:40;;;;;;;7.22;4.35;;;;;;;25.92;60.16;101561.47;7393564;19;20021;-65
2022/08/02 09:36:13;;;;;;;6.85;4.05;;;;;;;26.07;61.09;101557.28;7394815;19;20094;-64
2022/08/02 09:38:54;;;;;;;3.97;3.10;;;;;;;26.13;59.21;101550.47;7393061;19;20014;-64
2022/08/02 09:41:25;;;;;;;3.75;2.35;;;;;;;26.49;55.17;101555.84;7395360;19;20011;-65
2022/08/02 09:43:54;;;;;;;3.25;2.17;;;;;;;26.74;54.76;101553.41;7394626;19;20022;-65
2022/08/02 09:46:25;;;;;;;4.57;2.22;;;;;;;26.66;53.39;101558.66;7393998;19;20017;-64
2022/08/02 09:48:56;;;;;;;9.38;2.70;;;;;;;26.88;52.18;101563.59;7391141;19;20070;-64
2022/08/02 09:51:29;;;;;;;3.45;2.35;;;;;;;26.60;52.61;101554.75;7393221;19;20030;-64
2022/08/02 09:54:00;;;;;;;3.30;2.38;;;;;;;26.48;54.86;101551.47;7392210;19;20070;-65
2022/08/02 09:56:40;;;;;;;2.60;1.98;;;;;;;26.72;56.19;101553.56;7394332;19;20015;-63
2022/08/02 09:59:10;;;;;;;4.28;2.30;;;;;;;26.63;56.46;101548.25;7393508;19;20010;-64
2022/08/02 10:01:40;;;;;;;3.90;2.17;;;;;;;27.05;56.62;101552.91;7396449;19;20017;-64
2022/08/02 10:04:12;;;;;;;4.55;2.50;;;;;;;26.87;54.67;101555.69;7394317;19;20020;-64
2022/08/02 10:06:45;;;;;;;2.95;2.00;;;;;;;26.94;54.90;101559.44;7393737;19;20022;-64
2022/08/02 10:09:14;;;;;;;5.65;2.30;;;;;;;26.84;55.60;101564.06;7393141;19;20022;-64
2022/08/02 10:11:43;;;;;;;3.35;2.20;;;;;;;26.72;55.99;101560.75;7392058;19;20332;-64
2022/08/02 10:14:13;;;;;;;4.82;2.20;;;;;;;26.61;56.52;101561.84;7393661;19;20015;-63
2022/08/02 10:16:44;;;;;;;5.28;2.95;;;;;;;26.88;55.26;101552.84;7400373;19;20007;-65
2022/08/02 10:19:13;;;;;;;3.00;2.00;;;;;;;26.91;55.35;101557.06;7400244;19;20015;-65
2022/08/02 10:21:47;;;;;;;4.10;2.38;;;;;;;27.15;56.17;101567.09;7399727;19;20371;-64
2022/08/02 10:24:18;;;;;;;3.65;2.28;;;;;;;27.28;55.52;101577.44;7401238;19;20364;-64
2022/08/02 10:26:48;;;;;;;4.07;1.95;;;;;;;27.34;53.51;101562.50;7400689;19;20015;-65
2022/08/02 10:29:20;;;;;;;2.90;2.30;;;;;;;27.24;53.00;101579.63;7398024;19;20356;-62
2022/08/02 10:31:52;;;;;;;3.90;1.98;;;;;;;27.64;53.67;101558.47;7398320;19;20352;-64
2022/08/02 10:34:25;;;;;;;2.85;2.35;;;;;;;27.40;51.96;101559.22;7402738;19;20086;-65
2022/08/02 10:36:58;;;;;;;3.40;2.35;;;;;;;27.71;51.84;101574.81;7401299;19;20329;-64
2022/08/02 10:39:27;;;;;;;3.90;2.58;;;;;;;27.49;52.85;101557.41;7400649;19;20360;-64
2022/08/02 10:41:55;;;;;;;3.35;2.50;;;;;;;27.31;53.55;101547.53;7398623;19;20492;-64
2022/08/02 10:44:27;;;;;;;5.18;2.28;;;;;;;27.47;52.77;101559.41;7403140;19;20475;-65
2022/08/02 10:47:21;;;;;;;3.65;2.30;;;;;;;27.67;53.41;101557.28;7402257;19;20030;-65
2022/08/02 10:49:51;;;;;;;3.72;2.30;;;;;;;27.68;52.07;101558.97;7400521;19;20364;-64
2022/08/02 10:52:22;;;;;;;13.00;9.52;;;;;;;28.04;53.50;101548.00;7398386;19;20015;-64
2022/08/02 10:54:58;;;;;;;2.53;2.00;;;;;;;27.56;52.05;101559.28;7400910;19;20010;-63
2022/08/02 10:57:29;;;;;;;2.72;1.98;;;;;;;28.12;52.81;101542.63;7400107;19;20087;-64
2022/08/02 11:00:00;;;;;;;4.75;2.20;;;;;;;28.54;49.41;101546.19;7399335;19;20049;-64
2022/08/02 11:02:41;;;;;;;2.25;1.70;;;;;;;28.49;48.63;101549.41;7397875;19;20070;-64
2022/08/02 11:05:13;;;;;;;3.05;1.95;;;;;;;28.15;47.08;101545.00;7400788;19;20089;-64
2022/08/02 11:07:48;;;;;;;2.42;2.10;;;;;;;28.37;48.03;101539.94;7401089;19;20022;-64
2022/08/02 11:10:35;;;;;;;4.05;1.98;;;;;;;28.55;47.93;101534.41;7398703;19;20252;-64
2022/08/02 11:13:07;;;;;;;3.25;1.85;;;;;;;28.69;45.93;101531.06;7400421;19;20507;-63
2022/08/02 11:16:03;;;;;;;5.10;1.80;;;;;;;29.12;45.05;101538.91;7403720;19;20022;-64
2022/08/02 11:19:02;;;;;;;6.70;1.80;;;;;;;28.92;44.30;101539.28;7397878;19;20092;-64
2022/08/02 11:21:32;;;;;;;3.95;2.10;;;;;;;28.30;44.20;101532.53;7396946;19;20038;-63
2022/08/02 11:24:30;;;;;;;2.08;1.88;;;;;;;28.86;43.93;101539.97;7401336;19;20058;-64
2022/08/02 11:27:00;;;;;;;4.97;2.90;;;;;;;28.97;43.03;101545.00;7397575;19;20026;-64
2022/08/02 11:29:40;;;;;;;3.95;2.20;;;;;;;28.87;43.29;101548.88;7398967;19;20046;-65
2022/08/02 11:32:10;;;;;;;2.33;1.90;;;;;;;29.18;42.30;101549.81;7397703;19;20019;-66
2022/08/02 11:34:41;;;;;;;2.63;2.08;;;;;;;29.37;42.49;101536.97;7402871;19;20407;-65
2022/08/02 11:37:10;;;;;;;3.25;1.75;;;;;;;28.94;42.04;101531.88;7399041;19;20011;-64
2022/08/02 11:39:41;;;;;;;2.03;1.77;;;;;;;29.21;41.62;101537.00;7398772;19;20078;-65
2022/08/02 11:42:10;;;;;;;3.55;1.80;;;;;;;29.78;40.45;101539.47;7397042;19;20019;-65
2022/08/02 11:44:45;;;;;;;2.50;1.90;;;;;;;29.58;39.83;101536.38;7399478;19;20376;-64
2022/08/02 11:47:14;;;;;;;3.92;1.92;;;;;;;29.60;41.50;101530.81;7398614;19;20022;-63